Ana Sayfa
METAR-TAF:

METAR-TAF

Havaalanları :

Larnaka Uluslararası Havalimanı

Larnaka, Kıbrıs

Enlem: 34-53N, Boylam: 033-38E, yükseklik: 2 m

Güncel hava durumu gözlemi

Rapor saat 14:30 UTC de 31 dakika önce yapıldı.
Rüzgar güneybatıdan 11 kt
Sıcaklık 29°C
Nem 48%
Basınç 1009 hPa
Görüş mesafesi 10 km veya daha fazla
3000 ft yükseklikte az bulutlu

METAR: LCLK 261430Z 22011KT 9999 FEW030 29/17 Q1009 NOSIG

Saat: 18:01 (15:01 UTC)

Tahmin

Rapor saat 11:30 UTC de 3 saat ve 31 dakika önce yapıldı.
Ayın 26'si saat 12 UTC'den ayın 27'si saat 12 UTC'ye kadar geçerli Tahmin
Rüzgar güney/güneybatıdan 12 kt
Görüş mesafesi 10 km veya daha fazla
2500 ft yükseklikte az bulutlu
Dönüşüyor
ayın 26'si saat 18 UTC'den ayın 26'si saat 21 UTC'ye kadar
Rüzgar kuzeybatıdan 6 kt
Dönüşüyor
ayın 27'si saat 08 UTC'den ayın 27'si saat 11 UTC'ye kadar
Rüzgar güneydan 10 kt

TAF: LCLK 261130Z 2612/2712 20012KT 9999 FEW025 BECMG 2618/2621 31006KT BECMG 2708/2711 19010KT

4.000'den fazla havaalanı için hava durumu gözlemleri ve tahminleri (METAR ve TAF raporları).

Kullanılabilir istasyonlar harita üzerinde sarı ve kırmızı noktalarla gösterilir.

İstasyonun adını görmek için fareyi noktanın üzerinde gezdirin.

Sonrasında hava gözlem ve tahminlerini görmek için tıklayın.

Haritayı değiştirmek için: yaklaştırmak için siyah artı işaretli yeşil düğmeye ve uzaklaştırmak için de eksi işaretli düğmeye hızla tıklayın; bitişik haritalar için yeşil okları kullanın.


METAR-TAF: